sensor_id;sensor_type;location;lat;lon;timestamp;temperature;humidity
76996;DHT22;65929;49.062;10.338;2023-04-08T00:00:37;2.20;92.20
76996;DHT22;65929;49.062;10.338;2023-04-08T00:01:45;2.20;92.30
76996;DHT22;65929;49.062;10.338;2023-04-08T00:02:48;2.20;92.20
76996;DHT22;65929;49.062;10.338;2023-04-08T00:03:56;2.20;92.20
76996;DHT22;65929;49.062;10.338;2023-04-08T00:05:05;2.20;92.10
76996;DHT22;65929;49.062;10.338;2023-04-08T00:06:09;2.20;92.10
76996;DHT22;65929;49.062;10.338;2023-04-08T00:07:10;2.20;92.20
76996;DHT22;65929;49.062;10.338;2023-04-08T00:08:11;2.20;92.10
76996;DHT22;65929;49.062;10.338;2023-04-08T00:09:13;2.30;92.00
76996;DHT22;65929;49.062;10.338;2023-04-08T00:10:14;2.20;91.90
76996;DHT22;65929;49.062;10.338;2023-04-08T00:11:15;2.20;91.70
76996;DHT22;65929;49.062;10.338;2023-04-08T00:12:16;2.20;91.40
76996;DHT22;65929;49.062;10.338;2023-04-08T00:13:17;2.10;91.20
76996;DHT22;65929;49.062;10.338;2023-04-08T00:14:18;2.10;91.20
76996;DHT22;65929;49.062;10.338;2023-04-08T00:15:19;2.00;91.20
76996;DHT22;65929;49.062;10.338;2023-04-08T00:16:20;2.00;91.40
76996;DHT22;65929;49.062;10.338;2023-04-08T00:17:22;1.90;91.50
76996;DHT22;65929;49.062;10.338;2023-04-08T00:18:23;1.90;91.50
76996;DHT22;65929;49.062;10.338;2023-04-08T00:19:25;1.90;91.80
76996;DHT22;65929;49.062;10.338;2023-04-08T00:20:26;1.90;92.00
76996;DHT22;65929;49.062;10.338;2023-04-08T00:21:27;2.00;92.10
76996;DHT22;65929;49.062;10.338;2023-04-08T00:22:28;2.00;92.20
76996;DHT22;65929;49.062;10.338;2023-04-08T00:23:29;2.00;92.10
76996;DHT22;65929;49.062;10.338;2023-04-08T00:24:30;2.00;92.00
76996;DHT22;65929;49.062;10.338;2023-04-08T00:25:31;2.00;92.00
76996;DHT22;65929;49.062;10.338;2023-04-08T00:26:32;2.10;91.80
76996;DHT22;65929;49.062;10.338;2023-04-08T00:27:35;2.00;91.50
76996;DHT22;65929;49.062;10.338;2023-04-08T00:28:38;1.90;91.20
76996;DHT22;65929;49.062;10.338;2023-04-08T00:29:39;1.80;91.00
76996;DHT22;65929;49.062;10.338;2023-04-08T00:30:42;1.80;91.20
76996;DHT22;65929;49.062;10.338;2023-04-08T00:31:42;1.70;91.50
76996;DHT22;65929;49.062;10.338;2023-04-08T00:32:43;1.70;91.70
76996;DHT22;65929;49.062;10.338;2023-04-08T00:33:45;1.70;91.80
76996;DHT22;65929;49.062;10.338;2023-04-08T00:34:47;1.70;92.00
76996;DHT22;65929;49.062;10.338;2023-04-08T00:35:49;1.70;92.20
76996;DHT22;65929;49.062;10.338;2023-04-08T00:36:50;1.70;92.40
76996;DHT22;65929;49.062;10.338;2023-04-08T00:37:51;1.80;92.60
76996;DHT22;65929;49.062;10.338;2023-04-08T00:38:52;1.80;92.70
76996;DHT22;65929;49.062;10.338;2023-04-08T00:39:53;1.90;92.80
76996;DHT22;65929;49.062;10.338;2023-04-08T00:40:54;1.90;92.80
76996;DHT22;65929;49.062;10.338;2023-04-08T00:41:55;2.00;92.90
76996;DHT22;65929;49.062;10.338;2023-04-08T00:43:00;2.10;92.90
76996;DHT22;65929;49.062;10.338;2023-04-08T00:44:01;2.10;93.00
76996;DHT22;65929;49.062;10.338;2023-04-08T00:45:02;2.20;92.90
76996;DHT22;65929;49.062;10.338;2023-04-08T00:46:09;2.30;93.00
76996;DHT22;65929;49.062;10.338;2023-04-08T00:47:11;2.30;93.00
76996;DHT22;65929;49.062;10.338;2023-04-08T00:48:12;2.40;93.00
76996;DHT22;65929;49.062;10.338;2023-04-08T00:49:13;2.50;92.90
76996;DHT22;65929;49.062;10.338;2023-04-08T00:50:16;2.50;92.70
76996;DHT22;65929;49.062;10.338;2023-04-08T00:51:18;2.50;92.50
76996;DHT22;65929;49.062;10.338;2023-04-08T00:52:20;2.50;92.30
76996;DHT22;65929;49.062;10.338;2023-04-08T00:53:21;2.60;92.10
76996;DHT22;65929;49.062;10.338;2023-04-08T00:54:22;2.70;92.00
76996;DHT22;65929;49.062;10.338;2023-04-08T00:55:23;2.70;91.90
76996;DHT22;65929;49.062;10.338;2023-04-08T00:56:24;2.70;91.80
76996;DHT22;65929;49.062;10.338;2023-04-08T00:57:25;2.70;91.80
76996;DHT22;65929;49.062;10.338;2023-04-08T00:58:27;2.80;92.10
76996;DHT22;65929;49.062;10.338;2023-04-08T00:59:30;2.80;92.30
76996;DHT22;65929;49.062;10.338;2023-04-08T01:00:33;2.80;92.60
76996;DHT22;65929;49.062;10.338;2023-04-08T01:01:42;2.80;92.60
76996;DHT22;65929;49.062;10.338;2023-04-08T01:02:47;2.80;92.50
76996;DHT22;65929;49.062;10.338;2023-04-08T01:04:00;2.80;92.40
76996;DHT22;65929;49.062;10.338;2023-04-08T01:05:04;2.80;92.10
76996;DHT22;65929;49.062;10.338;2023-04-08T01:06:12;2.80;91.90
76996;DHT22;65929;49.062;10.338;2023-04-08T01:07:17;2.90;91.70
76996;DHT22;65929;49.062;10.338;2023-04-08T01:08:20;2.90;91.60
76996;DHT22;65929;49.062;10.338;2023-04-08T01:09:27;2.90;91.70
76996;DHT22;65929;49.062;10.338;2023-04-08T01:10:31;2.90;91.70
76996;DHT22;65929;49.062;10.338;2023-04-08T01:11:34;3.00;91.70
76996;DHT22;65929;49.062;10.338;2023-04-08T01:12:40;3.00;91.70
76996;DHT22;65929;49.062;10.338;2023-04-08T01:13:44;3.10;91.80
76996;DHT22;65929;49.062;10.338;2023-04-08T01:14:47;3.10;92.00
76996;DHT22;65929;49.062;10.338;2023-04-08T01:15:49;3.10;92.20
76996;DHT22;65929;49.062;10.338;2023-04-08T01:16:50;3.20;92.40
76996;DHT22;65929;49.062;10.338;2023-04-08T01:17:54;3.20;92.60
76996;DHT22;65929;49.062;10.338;2023-04-08T01:18:55;3.30;92.70
76996;DHT22;65929;49.062;10.338;2023-04-08T01:19:58;3.30;92.60
76996;DHT22;65929;49.062;10.338;2023-04-08T01:21:00;3.30;92.60
76996;DHT22;65929;49.062;10.338;2023-04-08T01:22:10;3.30;92.50
76996;DHT22;65929;49.062;10.338;2023-04-08T01:23:15;3.30;92.90
76996;DHT22;65929;49.062;10.338;2023-04-08T01:24:19;3.30;93.20
76996;DHT22;65929;49.062;10.338;2023-04-08T01:25:26;3.40;93.40
76996;DHT22;65929;49.062;10.338;2023-04-08T01:26:31;3.40;93.60
76996;DHT22;65929;49.062;10.338;2023-04-08T01:27:32;3.40;93.60
76996;DHT22;65929;49.062;10.338;2023-04-08T01:28:35;3.50;93.70
76996;DHT22;65929;49.062;10.338;2023-04-08T01:29:37;3.50;93.70
76996;DHT22;65929;49.062;10.338;2023-04-08T01:30:39;3.50;93.70
76996;DHT22;65929;49.062;10.338;2023-04-08T01:31:41;3.50;93.90
76996;DHT22;65929;49.062;10.338;2023-04-08T01:32:44;3.50;94.10
76996;DHT22;65929;49.062;10.338;2023-04-08T01:33:47;3.50;94.20
76996;DHT22;65929;49.062;10.338;2023-04-08T01:34:48;3.60;94.30
76996;DHT22;65929;49.062;10.338;2023-04-08T01:35:50;3.60;94.30
76996;DHT22;65929;49.062;10.338;2023-04-08T01:36:54;3.60;94.40
76996;DHT22;65929;49.062;10.338;2023-04-08T01:37:57;3.60;94.40
76996;DHT22;65929;49.062;10.338;2023-04-08T01:38:59;3.60;94.40
76996;DHT22;65929;49.062;10.338;2023-04-08T01:40:01;3.60;94.30
76996;DHT22;65929;49.062;10.338;2023-04-08T01:41:03;3.60;94.40
76996;DHT22;65929;49.062;10.338;2023-04-08T01:42:07;3.60;94.40
76996;DHT22;65929;49.062;10.338;2023-04-08T01:43:10;3.60;94.50
76996;DHT22;65929;49.062;10.338;2023-04-08T01:44:13;3.60;94.50
76996;DHT22;65929;49.062;10.338;2023-04-08T01:45:15;3.70;94.60
76996;DHT22;65929;49.062;10.338;2023-04-08T01:46:17;3.70;94.70
76996;DHT22;65929;49.062;10.338;2023-04-08T01:47:18;3.70;94.70
76996;DHT22;65929;49.062;10.338;2023-04-08T01:48:19;3.70;94.80
76996;DHT22;65929;49.062;10.338;2023-04-08T01:49:21;3.70;94.80
76996;DHT22;65929;49.062;10.338;2023-04-08T01:50:24;3.80;94.90
76996;DHT22;65929;49.062;10.338;2023-04-08T01:51:26;3.90;94.90
76996;DHT22;65929;49.062;10.338;2023-04-08T01:52:28;3.90;95.00
76996;DHT22;65929;49.062;10.338;2023-04-08T01:53:30;3.90;95.00
76996;DHT22;65929;49.062;10.338;2023-04-08T01:54:31;3.90;95.00
76996;DHT22;65929;49.062;10.338;2023-04-08T01:55:32;3.90;95.10
76996;DHT22;65929;49.062;10.338;2023-04-08T01:56:37;3.90;95.10
76996;DHT22;65929;49.062;10.338;2023-04-08T01:57:40;3.90;95.20
76996;DHT22;65929;49.062;10.338;2023-04-08T01:58:50;3.90;95.20
76996;DHT22;65929;49.062;10.338;2023-04-08T01:59:52;4.00;95.30
76996;DHT22;65929;49.062;10.338;2023-04-08T02:00:57;4.00;95.30
76996;DHT22;65929;49.062;10.338;2023-04-08T02:02:00;4.00;95.30
76996;DHT22;65929;49.062;10.338;2023-04-08T02:03:04;4.10;95.30
76996;DHT22;65929;49.062;10.338;2023-04-08T02:04:05;4.10;95.30
76996;DHT22;65929;49.062;10.338;2023-04-08T02:05:06;4.10;95.30
76996;DHT22;65929;49.062;10.338;2023-04-08T02:06:08;4.10;95.40
76996;DHT22;65929;49.062;10.338;2023-04-08T02:07:09;4.20;95.40
76996;DHT22;65929;49.062;10.338;2023-04-08T02:08:11;4.20;95.40
76996;DHT22;65929;49.062;10.338;2023-04-08T02:09:12;4.20;95.40
76996;DHT22;65929;49.062;10.338;2023-04-08T02:10:13;4.20;95.40
76996;DHT22;65929;49.062;10.338;2023-04-08T02:11:14;4.30;95.40
76996;DHT22;65929;49.062;10.338;2023-04-08T02:12:15;4.30;95.30
76996;DHT22;65929;49.062;10.338;2023-04-08T02:13:18;4.30;95.30
76996;DHT22;65929;49.062;10.338;2023-04-08T02:14:19;4.30;95.30
76996;DHT22;65929;49.062;10.338;2023-04-08T02:15:20;4.30;95.30
76996;DHT22;65929;49.062;10.338;2023-04-08T02:16:23;4.40;95.30
76996;DHT22;65929;49.062;10.338;2023-04-08T02:17:39;4.40;95.20
76996;DHT22;65929;49.062;10.338;2023-04-08T02:18:46;4.40;95.20
76996;DHT22;65929;49.062;10.338;2023-04-08T02:19:55;4.40;95.10
76996;DHT22;65929;49.062;10.338;2023-04-08T02:21:03;4.40;95.10
76996;DHT22;65929;49.062;10.338;2023-04-08T02:22:11;4.40;95.00
76996;DHT22;65929;49.062;10.338;2023-04-08T02:23:16;4.40;95.00
76996;DHT22;65929;49.062;10.338;2023-04-08T02:24:19;4.40;95.00
76996;DHT22;65929;49.062;10.338;2023-04-08T02:25:23;4.40;94.90
76996;DHT22;65929;49.062;10.338;2023-04-08T02:26:25;4.40;94.90
76996;DHT22;65929;49.062;10.338;2023-04-08T02:27:28;4.50;94.90
76996;DHT22;65929;49.062;10.338;2023-04-08T02:28:34;4.40;94.90
76996;DHT22;65929;49.062;10.338;2023-04-08T02:29:36;4.50;94.80
76996;DHT22;65929;49.062;10.338;2023-04-08T02:30:41;4.40;94.80
76996;DHT22;65929;49.062;10.338;2023-04-08T02:31:43;4.50;94.80
76996;DHT22;65929;49.062;10.338;2023-04-08T02:32:46;4.50;94.70
76996;DHT22;65929;49.062;10.338;2023-04-08T02:33:48;4.50;94.70
76996;DHT22;65929;49.062;10.338;2023-04-08T02:34:50;4.50;94.70
76996;DHT22;65929;49.062;10.338;2023-04-08T02:35:52;4.50;94.70
76996;DHT22;65929;49.062;10.338;2023-04-08T02:36:54;4.50;94.70
76996;DHT22;65929;49.062;10.338;2023-04-08T02:37:55;4.50;94.60
76996;DHT22;65929;49.062;10.338;2023-04-08T02:38:56;4.50;94.60
76996;DHT22;65929;49.062;10.338;2023-04-08T02:39:57;4.50;94.60
76996;DHT22;65929;49.062;10.338;2023-04-08T02:40:58;4.50;94.60
76996;DHT22;65929;49.062;10.338;2023-04-08T02:41:59;4.50;94.50
76996;DHT22;65929;49.062;10.338;2023-04-08T02:43:00;4.50;94.50
76996;DHT22;65929;49.062;10.338;2023-04-08T02:44:03;4.50;94.50
76996;DHT22;65929;49.062;10.338;2023-04-08T02:45:04;4.50;94.50
76996;DHT22;65929;49.062;10.338;2023-04-08T02:46:06;4.50;94.50
76996;DHT22;65929;49.062;10.338;2023-04-08T02:47:08;4.50;94.50
76996;DHT22;65929;49.062;10.338;2023-04-08T02:48:09;4.50;94.50
76996;DHT22;65929;49.062;10.338;2023-04-08T02:49:10;4.50;94.40
76996;DHT22;65929;49.062;10.338;2023-04-08T02:50:11;4.50;94.30
76996;DHT22;65929;49.062;10.338;2023-04-08T02:51:12;4.50;94.30
76996;DHT22;65929;49.062;10.338;2023-04-08T02:52:13;4.50;94.20
76996;DHT22;65929;49.062;10.338;2023-04-08T02:53:14;4.50;94.20
76996;DHT22;65929;49.062;10.338;2023-04-08T02:54:15;4.50;94.10
76996;DHT22;65929;49.062;10.338;2023-04-08T02:55:16;4.50;94.10
76996;DHT22;65929;49.062;10.338;2023-04-08T02:56:17;4.50;94.10
76996;DHT22;65929;49.062;10.338;2023-04-08T02:57:18;4.50;94.10
76996;DHT22;65929;49.062;10.338;2023-04-08T02:58:19;4.50;94.10
76996;DHT22;65929;49.062;10.338;2023-04-08T02:59:22;4.50;94.10
76996;DHT22;65929;49.062;10.338;2023-04-08T03:00:23;4.50;94.10
76996;DHT22;65929;49.062;10.338;2023-04-08T03:01:24;4.50;94.00
76996;DHT22;65929;49.062;10.338;2023-04-08T03:02:25;4.50;94.00
76996;DHT22;65929;49.062;10.338;2023-04-08T03:03:26;4.50;93.90
76996;DHT22;65929;49.062;10.338;2023-04-08T03:04:29;4.50;93.90
76996;DHT22;65929;49.062;10.338;2023-04-08T03:05:30;4.50;93.90
76996;DHT22;65929;49.062;10.338;2023-04-08T03:06:30;4.50;93.90
76996;DHT22;65929;49.062;10.338;2023-04-08T03:07:32;4.50;93.80
76996;DHT22;65929;49.062;10.338;2023-04-08T03:08:33;4.50;93.80
76996;DHT22;65929;49.062;10.338;2023-04-08T03:09:34;4.50;93.70
76996;DHT22;65929;49.062;10.338;2023-04-08T03:10:35;4.50;93.60
76996;DHT22;65929;49.062;10.338;2023-04-08T03:11:36;4.50;93.60
76996;DHT22;65929;49.062;10.338;2023-04-08T03:12:37;4.50;93.50
76996;DHT22;65929;49.062;10.338;2023-04-08T03:13:38;4.50;93.50
76996;DHT22;65929;49.062;10.338;2023-04-08T03:14:40;4.50;93.50
76996;DHT22;65929;49.062;10.338;2023-04-08T03:15:41;4.50;93.40
76996;DHT22;65929;49.062;10.338;2023-04-08T03:16:42;4.50;93.30
76996;DHT22;65929;49.062;10.338;2023-04-08T03:17:43;4.50;93.30
76996;DHT22;65929;49.062;10.338;2023-04-08T03:18:44;4.50;93.20
76996;DHT22;65929;49.062;10.338;2023-04-08T03:19:46;4.50;93.20
76996;DHT22;65929;49.062;10.338;2023-04-08T03:20:47;4.50;93.20
76996;DHT22;65929;49.062;10.338;2023-04-08T03:21:48;4.50;93.20
76996;DHT22;65929;49.062;10.338;2023-04-08T03:22:49;4.50;93.20
76996;DHT22;65929;49.062;10.338;2023-04-08T03:23:50;4.50;93.20
76996;DHT22;65929;49.062;10.338;2023-04-08T03:24:51;4.50;93.20
76996;DHT22;65929;49.062;10.338;2023-04-08T03:25:52;4.50;93.20
76996;DHT22;65929;49.062;10.338;2023-04-08T03:26:53;4.50;93.10
76996;DHT22;65929;49.062;10.338;2023-04-08T03:27:53;4.50;93.00
76996;DHT22;65929;49.062;10.338;2023-04-08T03:28:54;4.50;93.00
76996;DHT22;65929;49.062;10.338;2023-04-08T03:29:57;4.50;93.00
76996;DHT22;65929;49.062;10.338;2023-04-08T03:30:58;4.50;92.90
76996;DHT22;65929;49.062;10.338;2023-04-08T03:32:00;4.50;92.90
76996;DHT22;65929;49.062;10.338;2023-04-08T03:33:01;4.50;92.80
76996;DHT22;65929;49.062;10.338;2023-04-08T03:34:04;4.50;92.80
76996;DHT22;65929;49.062;10.338;2023-04-08T03:35:06;4.50;92.80
76996;DHT22;65929;49.062;10.338;2023-04-08T03:36:07;4.50;92.80
76996;DHT22;65929;49.062;10.338;2023-04-08T03:37:08;4.50;92.80
76996;DHT22;65929;49.062;10.338;2023-04-08T03:38:09;4.50;92.80
76996;DHT22;65929;49.062;10.338;2023-04-08T03:39:10;4.50;92.80
76996;DHT22;65929;49.062;10.338;2023-04-08T03:40:12;4.50;92.80
76996;DHT22;65929;49.062;10.338;2023-04-08T03:41:13;4.50;92.80
76996;DHT22;65929;49.062;10.338;2023-04-08T03:42:13;4.50;92.80
76996;DHT22;65929;49.062;10.338;2023-04-08T03:43:15;4.50;92.80
76996;DHT22;65929;49.062;10.338;2023-04-08T03:44:16;4.50;92.80
76996;DHT22;65929;49.062;10.338;2023-04-08T03:45:18;4.50;92.70
76996;DHT22;65929;49.062;10.338;2023-04-08T03:46:19;4.50;92.70
76996;DHT22;65929;49.062;10.338;2023-04-08T03:47:22;4.50;92.60
76996;DHT22;65929;49.062;10.338;2023-04-08T03:48:23;4.50;92.50
76996;DHT22;65929;49.062;10.338;2023-04-08T03:49:24;4.50;92.50
76996;DHT22;65929;49.062;10.338;2023-04-08T03:50:25;4.50;92.50
76996;DHT22;65929;49.062;10.338;2023-04-08T03:51:26;4.50;92.50
76996;DHT22;65929;49.062;10.338;2023-04-08T03:52:28;4.50;92.50
76996;DHT22;65929;49.062;10.338;2023-04-08T03:53:29;4.50;92.50
76996;DHT22;65929;49.062;10.338;2023-04-08T03:54:30;4.50;92.50
76996;DHT22;65929;49.062;10.338;2023-04-08T03:55:31;4.50;92.60
76996;DHT22;65929;49.062;10.338;2023-04-08T03:56:32;4.50;92.50
76996;DHT22;65929;49.062;10.338;2023-04-08T03:57:33;4.50;92.50
76996;DHT22;65929;49.062;10.338;2023-04-08T03:58:34;4.50;92.50
76996;DHT22;65929;49.062;10.338;2023-04-08T03:59:35;4.50;92.50
76996;DHT22;65929;49.062;10.338;2023-04-08T04:00:37;4.50;92.60
76996;DHT22;65929;49.062;10.338;2023-04-08T04:01:38;4.50;92.60
76996;DHT22;65929;49.062;10.338;2023-04-08T04:02:39;4.50;92.50
76996;DHT22;65929;49.062;10.338;2023-04-08T04:03:40;4.50;92.50
76996;DHT22;65929;49.062;10.338;2023-04-08T04:04:41;4.50;92.50
76996;DHT22;65929;49.062;10.338;2023-04-08T04:05:42;4.50;92.40
76996;DHT22;65929;49.062;10.338;2023-04-08T04:06:43;4.50;92.50
76996;DHT22;65929;49.062;10.338;2023-04-08T04:07:44;4.50;92.50
76996;DHT22;65929;49.062;10.338;2023-04-08T04:08:45;4.50;92.60
76996;DHT22;65929;49.062;10.338;2023-04-08T04:09:46;4.40;92.70
76996;DHT22;65929;49.062;10.338;2023-04-08T04:10:47;4.40;92.70
76996;DHT22;65929;49.062;10.338;2023-04-08T04:11:47;4.40;92.70
76996;DHT22;65929;49.062;10.338;2023-04-08T04:12:49;4.40;92.80
76996;DHT22;65929;49.062;10.338;2023-04-08T04:13:49;4.40;92.80
76996;DHT22;65929;49.062;10.338;2023-04-08T04:14:50;4.40;92.80
76996;DHT22;65929;49.062;10.338;2023-04-08T04:15:53;4.40;92.80
76996;DHT22;65929;49.062;10.338;2023-04-08T04:16:54;4.40;92.80
76996;DHT22;65929;49.062;10.338;2023-04-08T04:17:55;4.40;92.80
76996;DHT22;65929;49.062;10.338;2023-04-08T04:18:55;4.40;92.80
76996;DHT22;65929;49.062;10.338;2023-04-08T04:19:56;4.40;92.80
76996;DHT22;65929;49.062;10.338;2023-04-08T04:20:57;4.40;92.70
76996;DHT22;65929;49.062;10.338;2023-04-08T04:21:58;4.40;92.70
76996;DHT22;65929;49.062;10.338;2023-04-08T04:22:59;4.40;92.70
76996;DHT22;65929;49.062;10.338;2023-04-08T04:24:00;4.40;92.60
76996;DHT22;65929;49.062;10.338;2023-04-08T04:25:01;4.40;92.60
76996;DHT22;65929;49.062;10.338;2023-04-08T04:26:07;4.40;92.60
76996;DHT22;65929;49.062;10.338;2023-04-08T04:27:08;4.40;92.60
76996;DHT22;65929;49.062;10.338;2023-04-08T04:28:09;4.40;92.50
76996;DHT22;65929;49.062;10.338;2023-04-08T04:29:10;4.40;92.50
76996;DHT22;65929;49.062;10.338;2023-04-08T04:30:11;4.40;92.50
76996;DHT22;65929;49.062;10.338;2023-04-08T04:31:20;4.40;92.40
76996;DHT22;65929;49.062;10.338;2023-04-08T04:32:21;4.50;92.30
76996;DHT22;65929;49.062;10.338;2023-04-08T04:33:22;4.50;92.30
76996;DHT22;65929;49.062;10.338;2023-04-08T04:34:23;4.40;92.30
76996;DHT22;65929;49.062;10.338;2023-04-08T04:35:24;4.50;92.30
76996;DHT22;65929;49.062;10.338;2023-04-08T04:36:25;4.40;92.30
76996;DHT22;65929;49.062;10.338;2023-04-08T04:37:26;4.50;92.30
76996;DHT22;65929;49.062;10.338;2023-04-08T04:38:27;4.50;92.30
76996;DHT22;65929;49.062;10.338;2023-04-08T04:39:28;4.40;92.30
76996;DHT22;65929;49.062;10.338;2023-04-08T04:40:28;4.50;92.20
76996;DHT22;65929;49.062;10.338;2023-04-08T04:41:29;4.40;92.30
76996;DHT22;65929;49.062;10.338;2023-04-08T04:42:31;4.40;92.30
76996;DHT22;65929;49.062;10.338;2023-04-08T04:43:32;4.40;92.30
76996;DHT22;65929;49.062;10.338;2023-04-08T04:44:33;4.50;92.30
76996;DHT22;65929;49.062;10.338;2023-04-08T04:45:34;4.40;92.30
76996;DHT22;65929;49.062;10.338;2023-04-08T04:46:37;4.40;92.30
76996;DHT22;65929;49.062;10.338;2023-04-08T04:47:37;4.40;92.30
76996;DHT22;65929;49.062;10.338;2023-04-08T04:48:38;4.40;92.40
76996;DHT22;65929;49.062;10.338;2023-04-08T04:49:40;4.40;92.30
76996;DHT22;65929;49.062;10.338;2023-04-08T04:50:41;4.40;92.40
76996;DHT22;65929;49.062;10.338;2023-04-08T04:51:42;4.40;92.40
76996;DHT22;65929;49.062;10.338;2023-04-08T04:52:43;4.40;92.40
76996;DHT22;65929;49.062;10.338;2023-04-08T04:53:44;4.40;92.40
76996;DHT22;65929;49.062;10.338;2023-04-08T04:54:45;4.40;92.50
76996;DHT22;65929;49.062;10.338;2023-04-08T04:55:46;4.40;92.50
76996;DHT22;65929;49.062;10.338;2023-04-08T04:56:47;4.30;92.40
76996;DHT22;65929;49.062;10.338;2023-04-08T04:57:48;4.30;92.40
76996;DHT22;65929;49.062;10.338;2023-04-08T04:58:49;4.30;92.40
76996;DHT22;65929;49.062;10.338;2023-04-08T04:59:50;4.40;92.40
76996;DHT22;65929;49.062;10.338;2023-04-08T05:00:51;4.30;92.40
76996;DHT22;65929;49.062;10.338;2023-04-08T05:01:53;4.30;92.50
76996;DHT22;65929;49.062;10.338;2023-04-08T05:02:57;4.30;92.50
76996;DHT22;65929;49.062;10.338;2023-04-08T05:03:58;4.30;92.40
76996;DHT22;65929;49.062;10.338;2023-04-08T05:04:59;4.30;92.40
76996;DHT22;65929;49.062;10.338;2023-04-08T05:06:00;4.30;92.30
76996;DHT22;65929;49.062;10.338;2023-04-08T05:07:01;4.30;92.20
76996;DHT22;65929;49.062;10.338;2023-04-08T05:08:02;4.30;92.20
76996;DHT22;65929;49.062;10.338;2023-04-08T05:09:03;4.30;92.20
76996;DHT22;65929;49.062;10.338;2023-04-08T05:10:04;4.30;92.20
76996;DHT22;65929;49.062;10.338;2023-04-08T05:11:08;4.30;92.20
76996;DHT22;65929;49.062;10.338;2023-04-08T05:12:09;4.30;92.20
76996;DHT22;65929;49.062;10.338;2023-04-08T05:13:10;4.20;92.20
76996;DHT22;65929;49.062;10.338;2023-04-08T05:14:11;4.20;92.20
76996;DHT22;65929;49.062;10.338;2023-04-08T05:15:12;4.20;92.30
76996;DHT22;65929;49.062;10.338;2023-04-08T05:16:13;4.20;92.20
76996;DHT22;65929;49.062;10.338;2023-04-08T05:17:15;4.20;92.30
76996;DHT22;65929;49.062;10.338;2023-04-08T05:18:16;4.20;92.30
76996;DHT22;65929;49.062;10.338;2023-04-08T05:19:17;4.20;92.20
76996;DHT22;65929;49.062;10.338;2023-04-08T05:20:18;4.20;92.30
76996;DHT22;65929;49.062;10.338;2023-04-08T05:21:19;4.20;92.30
76996;DHT22;65929;49.062;10.338;2023-04-08T05:22:20;4.20;92.20
76996;DHT22;65929;49.062;10.338;2023-04-08T05:23:21;4.20;92.20
76996;DHT22;65929;49.062;10.338;2023-04-08T05:24:22;4.20;92.20
76996;DHT22;65929;49.062;10.338;2023-04-08T05:25:23;4.20;92.10
76996;DHT22;65929;49.062;10.338;2023-04-08T05:26:24;4.30;92.10
76996;DHT22;65929;49.062;10.338;2023-04-08T05:27:25;4.20;92.00
76996;DHT22;65929;49.062;10.338;2023-04-08T05:28:26;4.30;92.00
76996;DHT22;65929;49.062;10.338;2023-04-08T05:29:27;4.30;92.00
76996;DHT22;65929;49.062;10.338;2023-04-08T05:30:28;4.30;91.90
76996;DHT22;65929;49.062;10.338;2023-04-08T05:31:29;4.30;91.90
76996;DHT22;65929;49.062;10.338;2023-04-08T05:32:32;4.30;91.80
76996;DHT22;65929;49.062;10.338;2023-04-08T05:33:33;4.30;91.60
76996;DHT22;65929;49.062;10.338;2023-04-08T05:34:34;4.30;91.60
76996;DHT22;65929;49.062;10.338;2023-04-08T05:35:35;4.30;91.60
76996;DHT22;65929;49.062;10.338;2023-04-08T05:36:36;4.30;91.50
76996;DHT22;65929;49.062;10.338;2023-04-08T05:37:37;4.30;91.40
76996;DHT22;65929;49.062;10.338;2023-04-08T05:38:38;4.30;91.30
76996;DHT22;65929;49.062;10.338;2023-04-08T05:39:39;4.30;91.30
76996;DHT22;65929;49.062;10.338;2023-04-08T05:40:40;4.40;91.20
76996;DHT22;65929;49.062;10.338;2023-04-08T05:41:41;4.40;91.10
76996;DHT22;65929;49.062;10.338;2023-04-08T05:42:42;4.30;91.00
76996;DHT22;65929;49.062;10.338;2023-04-08T05:43:43;4.30;91.10
76996;DHT22;65929;49.062;10.338;2023-04-08T05:44:44;4.30;91.00
76996;DHT22;65929;49.062;10.338;2023-04-08T05:45:45;4.40;91.10
76996;DHT22;65929;49.062;10.338;2023-04-08T05:46:46;4.40;91.00
76996;DHT22;65929;49.062;10.338;2023-04-08T05:47:48;4.40;91.00
76996;DHT22;65929;49.062;10.338;2023-04-08T05:48:49;4.40;91.00
76996;DHT22;65929;49.062;10.338;2023-04-08T05:49:50;4.40;90.90
76996;DHT22;65929;49.062;10.338;2023-04-08T05:50:51;4.40;90.90
76996;DHT22;65929;49.062;10.338;2023-04-08T05:51:52;4.40;90.90
76996;DHT22;65929;49.062;10.338;2023-04-08T05:52:53;4.40;90.80
76996;DHT22;65929;49.062;10.338;2023-04-08T05:53:54;4.40;90.70
76996;DHT22;65929;49.062;10.338;2023-04-08T05:54:56;4.50;90.60
76996;DHT22;65929;49.062;10.338;2023-04-08T05:55:57;4.50;90.50
76996;DHT22;65929;49.062;10.338;2023-04-08T05:56:58;4.50;90.50
76996;DHT22;65929;49.062;10.338;2023-04-08T05:57:59;4.50;90.40
76996;DHT22;65929;49.062;10.338;2023-04-08T05:59:00;4.50;90.30
76996;DHT22;65929;49.062;10.338;2023-04-08T06:00:01;4.50;90.20
76996;DHT22;65929;49.062;10.338;2023-04-08T06:01:02;4.50;90.10
76996;DHT22;65929;49.062;10.338;2023-04-08T06:02:06;4.50;90.10
76996;DHT22;65929;49.062;10.338;2023-04-08T06:03:08;4.60;89.90
76996;DHT22;65929;49.062;10.338;2023-04-08T06:04:10;4.60;89.80
76996;DHT22;65929;49.062;10.338;2023-04-08T06:05:11;4.60;89.70
76996;DHT22;65929;49.062;10.338;2023-04-08T06:06:12;4.60;89.70
76996;DHT22;65929;49.062;10.338;2023-04-08T06:07:13;4.60;89.50
76996;DHT22;65929;49.062;10.338;2023-04-08T06:08:14;4.60;89.50
76996;DHT22;65929;49.062;10.338;2023-04-08T06:09:16;4.70;89.60
76996;DHT22;65929;49.062;10.338;2023-04-08T06:10:17;4.70;89.40
76996;DHT22;65929;49.062;10.338;2023-04-08T06:11:17;4.70;89.20
76996;DHT22;65929;49.062;10.338;2023-04-08T06:12:18;4.70;89.20
76996;DHT22;65929;49.062;10.338;2023-04-08T06:13:20;4.70;89.10
76996;DHT22;65929;49.062;10.338;2023-04-08T06:14:21;4.70;89.00
76996;DHT22;65929;49.062;10.338;2023-04-08T06:15:22;4.70;89.00
76996;DHT22;65929;49.062;10.338;2023-04-08T06:16:23;4.70;88.70
76996;DHT22;65929;49.062;10.338;2023-04-08T06:17:24;4.80;88.40
76996;DHT22;65929;49.062;10.338;2023-04-08T06:18:27;4.90;88.20
76996;DHT22;65929;49.062;10.338;2023-04-08T06:19:28;4.90;87.90
76996;DHT22;65929;49.062;10.338;2023-04-08T06:20:29;4.90;87.20
76996;DHT22;65929;49.062;10.338;2023-04-08T06:21:30;4.90;86.40
76996;DHT22;65929;49.062;10.338;2023-04-08T06:22:31;4.90;86.20
76996;DHT22;65929;49.062;10.338;2023-04-08T06:23:32;4.90;86.40
76996;DHT22;65929;49.062;10.338;2023-04-08T06:24:33;4.90;86.20
76996;DHT22;65929;49.062;10.338;2023-04-08T06:25:34;4.90;86.10
76996;DHT22;65929;49.062;10.338;2023-04-08T06:26:35;4.90;86.40
76996;DHT22;65929;49.062;10.338;2023-04-08T06:27:36;4.90;86.50
76996;DHT22;65929;49.062;10.338;2023-04-08T06:28:37;4.90;86.40
76996;DHT22;65929;49.062;10.338;2023-04-08T06:29:38;5.00;86.30
76996;DHT22;65929;49.062;10.338;2023-04-08T06:30:39;5.00;85.80